Geneva, Florida
Current Conditions -  °F | °C
As of 12:53 PM on Friday 28 Nov 2014 (Local Time) from KSFB Reporting Station
Clear Clear  
Wind Chill: 60°   Ceiling: Unl
Heat Index: 60°   Visibility: 10mi
Dew Point: 41°   Wind: 12mph
Humidity: 49%   Direction: 10°N
Pressure: 30.29"   Gusts: NA
Location:  28.74°N, 81.12°W
Report Text: KSFB 281753Z 01010KT 350V050 10SM CLR 16/05 A3029 RMK AO2 SLP256 T01560050 10161 20056 58017
Loading
Personal Weather Stations






























Interactive Weather Map New forecast layout! Learn more

10-Day Weather Forecast

Advertisements
Track Severe Weather on mobile